sensor_id;sensor_type;location;lat;lon;timestamp;P1;durP1;ratioP1;P2;durP2;ratioP2
70122;SDS011;57489;37.404;24.920;2022-07-23T00:00:56;7.97;;;3.22;;
70122;SDS011;57489;37.404;24.920;2022-07-23T00:05:56;8.52;;;3.80;;
70122;SDS011;57489;37.404;24.920;2022-07-23T00:10:57;6.97;;;3.35;;
70122;SDS011;57489;37.404;24.920;2022-07-23T00:15:57;5.57;;;2.88;;
70122;SDS011;57489;37.404;24.920;2022-07-23T00:20:57;7.82;;;3.30;;
70122;SDS011;57489;37.404;24.920;2022-07-23T00:25:58;7.13;;;3.53;;
70122;SDS011;57489;37.404;24.920;2022-07-23T00:30:58;8.20;;;2.90;;
70122;SDS011;57489;37.404;24.920;2022-07-23T00:35:58;6.75;;;2.95;;
70122;SDS011;57489;37.404;24.920;2022-07-23T00:40:58;6.32;;;2.90;;
70122;SDS011;57489;37.404;24.920;2022-07-23T00:45:58;10.10;;;2.97;;
70122;SDS011;57489;37.404;24.920;2022-07-23T00:50:59;7.53;;;3.20;;
70122;SDS011;57489;37.404;24.920;2022-07-23T00:55:59;7.37;;;3.17;;
70122;SDS011;57489;37.404;24.920;2022-07-23T01:00:59;6.28;;;2.97;;
70122;SDS011;57489;37.404;24.920;2022-07-23T01:06:00;8.10;;;3.33;;
70122;SDS011;57489;37.404;24.920;2022-07-23T01:11:00;7.50;;;2.85;;
70122;SDS011;57489;37.404;24.920;2022-07-23T01:16:00;9.48;;;3.40;;
70122;SDS011;57489;37.404;24.920;2022-07-23T01:21:00;6.30;;;3.05;;
70122;SDS011;57489;37.404;24.920;2022-07-23T01:26:01;14.70;;;2.70;;
70122;SDS011;57489;37.404;24.920;2022-07-23T01:31:01;6.90;;;2.65;;
70122;SDS011;57489;37.404;24.920;2022-07-23T01:36:01;6.45;;;2.80;;
70122;SDS011;57489;37.404;24.920;2022-07-23T01:41:01;6.88;;;2.60;;
70122;SDS011;57489;37.404;24.920;2022-07-23T01:46:02;5.97;;;2.67;;
70122;SDS011;57489;37.404;24.920;2022-07-23T01:51:02;6.55;;;3.13;;
70122;SDS011;57489;37.404;24.920;2022-07-23T01:56:02;6.30;;;2.55;;
70122;SDS011;57489;37.404;24.920;2022-07-23T02:01:03;9.57;;;2.80;;
70122;SDS011;57489;37.404;24.920;2022-07-23T02:06:03;6.57;;;2.87;;
70122;SDS011;57489;37.404;24.920;2022-07-23T02:11:03;6.13;;;2.67;;
70122;SDS011;57489;37.404;24.920;2022-07-23T02:16:03;9.75;;;3.05;;
70122;SDS011;57489;37.404;24.920;2022-07-23T02:21:04;5.63;;;2.50;;
70122;SDS011;57489;37.404;24.920;2022-07-23T02:26:04;5.63;;;2.72;;
70122;SDS011;57489;37.404;24.920;2022-07-23T02:31:04;9.32;;;3.10;;
70122;SDS011;57489;37.404;24.920;2022-07-23T02:36:05;6.70;;;2.67;;
70122;SDS011;57489;37.404;24.920;2022-07-23T02:41:05;6.53;;;2.67;;
70122;SDS011;57489;37.404;24.920;2022-07-23T02:46:05;7.38;;;2.60;;
70122;SDS011;57489;37.404;24.920;2022-07-23T02:51:05;5.45;;;2.33;;
70122;SDS011;57489;37.404;24.920;2022-07-23T02:56:06;8.68;;;2.80;;
70122;SDS011;57489;37.404;24.920;2022-07-23T03:01:06;7.87;;;3.00;;
70122;SDS011;57489;37.404;24.920;2022-07-23T03:06:06;6.97;;;2.22;;
70122;SDS011;57489;37.404;24.920;2022-07-23T03:11:07;7.20;;;2.10;;
70122;SDS011;57489;37.404;24.920;2022-07-23T03:16:07;9.15;;;2.45;;
70122;SDS011;57489;37.404;24.920;2022-07-23T03:21:07;4.87;;;1.97;;
70122;SDS011;57489;37.404;24.920;2022-07-23T03:26:08;6.05;;;1.70;;
70122;SDS011;57489;37.404;24.920;2022-07-23T03:31:08;6.03;;;2.17;;
70122;SDS011;57489;37.404;24.920;2022-07-23T03:36:08;5.20;;;2.00;;
70122;SDS011;57489;37.404;24.920;2022-07-23T03:41:08;4.53;;;1.70;;
70122;SDS011;57489;37.404;24.920;2022-07-23T03:46:09;4.90;;;1.97;;
70122;SDS011;57489;37.404;24.920;2022-07-23T03:51:09;4.13;;;1.67;;
70122;SDS011;57489;37.404;24.920;2022-07-23T03:56:09;5.35;;;1.85;;
70122;SDS011;57489;37.404;24.920;2022-07-23T04:01:10;5.45;;;1.67;;
70122;SDS011;57489;37.404;24.920;2022-07-23T04:06:10;4.35;;;2.03;;
70122;SDS011;57489;37.404;24.920;2022-07-23T04:11:11;5.20;;;1.70;;
70122;SDS011;57489;37.404;24.920;2022-07-23T04:16:11;5.13;;;1.50;;
70122;SDS011;57489;37.404;24.920;2022-07-23T04:21:11;4.55;;;1.33;;
70122;SDS011;57489;37.404;24.920;2022-07-23T04:26:11;3.83;;;1.67;;
70122;SDS011;57489;37.404;24.920;2022-07-23T04:31:12;4.35;;;1.67;;
70122;SDS011;57489;37.404;24.920;2022-07-23T04:36:12;4.82;;;1.50;;
70122;SDS011;57489;37.404;24.920;2022-07-23T04:41:12;3.95;;;1.83;;
70122;SDS011;57489;37.404;24.920;2022-07-23T04:46:12;4.75;;;1.48;;
70122;SDS011;57489;37.404;24.920;2022-07-23T04:51:12;7.47;;;1.95;;
70122;SDS011;57489;37.404;24.920;2022-07-23T04:56:13;5.07;;;1.60;;
70122;SDS011;57489;37.404;24.920;2022-07-23T05:01:13;4.05;;;1.58;;
70122;SDS011;57489;37.404;24.920;2022-07-23T05:06:14;4.05;;;1.70;;
70122;SDS011;57489;37.404;24.920;2022-07-23T05:11:14;5.30;;;1.73;;
70122;SDS011;57489;37.404;24.920;2022-07-23T05:16:14;5.55;;;1.90;;
70122;SDS011;57489;37.404;24.920;2022-07-23T05:21:14;6.40;;;1.88;;
70122;SDS011;57489;37.404;24.920;2022-07-23T05:26:15;8.23;;;1.80;;
70122;SDS011;57489;37.404;24.920;2022-07-23T05:31:15;4.57;;;1.83;;
70122;SDS011;57489;37.404;24.920;2022-07-23T05:36:15;5.33;;;1.60;;
70122;SDS011;57489;37.404;24.920;2022-07-23T05:41:15;5.10;;;1.55;;
70122;SDS011;57489;37.404;24.920;2022-07-23T05:46:16;6.87;;;1.73;;
70122;SDS011;57489;37.404;24.920;2022-07-23T05:51:22;7.88;;;1.92;;
70122;SDS011;57489;37.404;24.920;2022-07-23T05:56:23;5.28;;;1.83;;
70122;SDS011;57489;37.404;24.920;2022-07-23T06:01:23;7.53;;;1.73;;
70122;SDS011;57489;37.404;24.920;2022-07-23T06:06:23;4.68;;;2.05;;
70122;SDS011;57489;37.404;24.920;2022-07-23T06:11:23;4.63;;;1.33;;
70122;SDS011;57489;37.404;24.920;2022-07-23T06:16:24;4.53;;;1.90;;
70122;SDS011;57489;37.404;24.920;2022-07-23T06:21:24;5.07;;;1.77;;
70122;SDS011;57489;37.404;24.920;2022-07-23T06:26:24;5.97;;;2.10;;
70122;SDS011;57489;37.404;24.920;2022-07-23T06:31:24;8.57;;;2.28;;
70122;SDS011;57489;37.404;24.920;2022-07-23T06:36:25;7.00;;;2.22;;
70122;SDS011;57489;37.404;24.920;2022-07-23T06:41:25;6.55;;;2.15;;
70122;SDS011;57489;37.404;24.920;2022-07-23T06:46:25;5.60;;;2.40;;
70122;SDS011;57489;37.404;24.920;2022-07-23T06:51:25;6.07;;;2.17;;
70122;SDS011;57489;37.404;24.920;2022-07-23T06:56:26;5.32;;;1.92;;
70122;SDS011;57489;37.404;24.920;2022-07-23T07:01:26;5.00;;;1.80;;
70122;SDS011;57489;37.404;24.920;2022-07-23T07:06:26;7.83;;;2.37;;
70122;SDS011;57489;37.404;24.920;2022-07-23T07:11:26;6.88;;;2.10;;
70122;SDS011;57489;37.404;24.920;2022-07-23T07:16:27;7.63;;;3.05;;
70122;SDS011;57489;37.404;24.920;2022-07-23T07:21:27;6.27;;;2.30;;
70122;SDS011;57489;37.404;24.920;2022-07-23T07:26:27;6.03;;;1.85;;
70122;SDS011;57489;37.404;24.920;2022-07-23T07:31:28;5.32;;;2.00;;
70122;SDS011;57489;37.404;24.920;2022-07-23T07:36:28;10.20;;;2.50;;
70122;SDS011;57489;37.404;24.920;2022-07-23T07:41:28;5.97;;;2.07;;
70122;SDS011;57489;37.404;24.920;2022-07-23T07:46:28;9.52;;;2.60;;
70122;SDS011;57489;37.404;24.920;2022-07-23T07:51:29;8.32;;;2.17;;
70122;SDS011;57489;37.404;24.920;2022-07-23T07:56:29;6.68;;;2.10;;
70122;SDS011;57489;37.404;24.920;2022-07-23T08:01:29;5.95;;;2.42;;
70122;SDS011;57489;37.404;24.920;2022-07-23T08:06:30;5.40;;;2.00;;
70122;SDS011;57489;37.404;24.920;2022-07-23T08:11:30;7.13;;;2.13;;
70122;SDS011;57489;37.404;24.920;2022-07-23T08:16:30;6.50;;;2.45;;
70122;SDS011;57489;37.404;24.920;2022-07-23T08:21:30;4.80;;;1.95;;
70122;SDS011;57489;37.404;24.920;2022-07-23T08:26:31;4.57;;;2.15;;
70122;SDS011;57489;37.404;24.920;2022-07-23T08:31:31;6.63;;;2.17;;
70122;SDS011;57489;37.404;24.920;2022-07-23T08:36:31;6.07;;;2.63;;
70122;SDS011;57489;37.404;24.920;2022-07-23T08:41:32;6.78;;;2.13;;
70122;SDS011;57489;37.404;24.920;2022-07-23T08:46:32;5.18;;;2.03;;
70122;SDS011;57489;37.404;24.920;2022-07-23T08:51:32;5.33;;;2.03;;
70122;SDS011;57489;37.404;24.920;2022-07-23T08:56:33;7.67;;;2.13;;
70122;SDS011;57489;37.404;24.920;2022-07-23T09:01:33;7.28;;;2.55;;
70122;SDS011;57489;37.404;24.920;2022-07-23T09:06:33;6.05;;;2.00;;
70122;SDS011;57489;37.404;24.920;2022-07-23T09:11:34;5.57;;;2.05;;
70122;SDS011;57489;37.404;24.920;2022-07-23T09:16:34;4.57;;;1.93;;
70122;SDS011;57489;37.404;24.920;2022-07-23T09:21:35;6.15;;;2.30;;
70122;SDS011;57489;37.404;24.920;2022-07-23T09:36:50;5.85;;;2.00;;
70122;SDS011;57489;37.404;24.920;2022-07-23T09:41:50;6.70;;;2.10;;
70122;SDS011;57489;37.404;24.920;2022-07-23T09:46:51;4.97;;;2.00;;
70122;SDS011;57489;37.404;24.920;2022-07-23T09:52:00;7.23;;;2.47;;
70122;SDS011;57489;37.404;24.920;2022-07-23T09:57:05;5.43;;;2.45;;
70122;SDS011;57489;37.404;24.920;2022-07-23T10:02:06;8.80;;;2.20;;
70122;SDS011;57489;37.404;24.920;2022-07-23T10:07:07;4.27;;;1.80;;
70122;SDS011;57489;37.404;24.920;2022-07-23T10:12:13;7.47;;;2.30;;
70122;SDS011;57489;37.404;24.920;2022-07-23T10:17:14;4.75;;;2.15;;
70122;SDS011;57489;37.404;24.920;2022-07-23T10:22:15;5.87;;;2.43;;
70122;SDS011;57489;37.404;24.920;2022-07-23T10:27:30;5.55;;;2.00;;
70122;SDS011;57489;37.404;24.920;2022-07-23T10:32:37;5.45;;;2.20;;
70122;SDS011;57489;37.404;24.920;2022-07-23T10:37:44;4.43;;;1.97;;
70122;SDS011;57489;37.404;24.920;2022-07-23T10:42:46;8.13;;;2.30;;
70122;SDS011;57489;37.404;24.920;2022-07-23T10:47:46;4.68;;;1.92;;
70122;SDS011;57489;37.404;24.920;2022-07-23T10:58:05;6.33;;;2.10;;
70122;SDS011;57489;37.404;24.920;2022-07-23T11:03:30;5.40;;;1.90;;
70122;SDS011;57489;37.404;24.920;2022-07-23T11:08:26;8.15;;;1.88;;
70122;SDS011;57489;37.404;24.920;2022-07-23T11:13:30;5.10;;;2.13;;
70122;SDS011;57489;37.404;24.920;2022-07-23T11:24:07;6.53;;;2.80;;
70122;SDS011;57489;37.404;24.920;2022-07-23T11:34:31;7.53;;;2.90;;
70122;SDS011;57489;37.404;24.920;2022-07-23T11:39:31;6.87;;;3.20;;
70122;SDS011;57489;37.404;24.920;2022-07-23T11:49:32;6.40;;;3.10;;
70122;SDS011;57489;37.404;24.920;2022-07-23T11:54:33;6.78;;;3.10;;
70122;SDS011;57489;37.404;24.920;2022-07-23T11:59:34;11.40;;;4.07;;
70122;SDS011;57489;37.404;24.920;2022-07-23T12:04:39;8.20;;;4.05;;
70122;SDS011;57489;37.404;24.920;2022-07-23T12:09:43;7.40;;;4.20;;
70122;SDS011;57489;37.404;24.920;2022-07-23T12:19:49;8.57;;;3.70;;
70122;SDS011;57489;37.404;24.920;2022-07-23T12:24:55;7.32;;;3.65;;
70122;SDS011;57489;37.404;24.920;2022-07-23T12:29:55;6.93;;;3.70;;
70122;SDS011;57489;37.404;24.920;2022-07-23T12:35:03;9.48;;;3.33;;
70122;SDS011;57489;37.404;24.920;2022-07-23T12:40:24;7.00;;;3.03;;
70122;SDS011;57489;37.404;24.920;2022-07-23T12:45:25;4.72;;;2.30;;
70122;SDS011;57489;37.404;24.920;2022-07-23T12:50:32;6.60;;;2.00;;
70122;SDS011;57489;37.404;24.920;2022-07-23T12:55:33;7.70;;;2.73;;
70122;SDS011;57489;37.404;24.920;2022-07-23T13:00:50;8.57;;;2.53;;
70122;SDS011;57489;37.404;24.920;2022-07-23T13:05:51;7.03;;;2.60;;
70122;SDS011;57489;37.404;24.920;2022-07-23T13:10:51;6.80;;;2.30;;
70122;SDS011;57489;37.404;24.920;2022-07-23T13:15:52;6.88;;;2.90;;
70122;SDS011;57489;37.404;24.920;2022-07-23T13:20:53;6.80;;;2.58;;
70122;SDS011;57489;37.404;24.920;2022-07-23T13:25:53;4.73;;;2.50;;
70122;SDS011;57489;37.404;24.920;2022-07-23T13:30:54;7.53;;;2.55;;
70122;SDS011;57489;37.404;24.920;2022-07-23T13:35:54;5.37;;;2.47;;
70122;SDS011;57489;37.404;24.920;2022-07-23T13:40:54;6.80;;;2.88;;
70122;SDS011;57489;37.404;24.920;2022-07-23T13:45:55;7.20;;;2.60;;
70122;SDS011;57489;37.404;24.920;2022-07-23T13:50:55;5.90;;;2.55;;
70122;SDS011;57489;37.404;24.920;2022-07-23T13:55:55;6.95;;;3.03;;
70122;SDS011;57489;37.404;24.920;2022-07-23T14:00:56;6.07;;;2.37;;
70122;SDS011;57489;37.404;24.920;2022-07-23T14:05:56;7.68;;;2.60;;
70122;SDS011;57489;37.404;24.920;2022-07-23T14:10:56;11.40;;;3.08;;
70122;SDS011;57489;37.404;24.920;2022-07-23T14:15:56;5.90;;;2.60;;
70122;SDS011;57489;37.404;24.920;2022-07-23T14:20:56;4.90;;;2.28;;
70122;SDS011;57489;37.404;24.920;2022-07-23T14:25:57;5.38;;;2.50;;
70122;SDS011;57489;37.404;24.920;2022-07-23T14:30:57;7.10;;;2.45;;
70122;SDS011;57489;37.404;24.920;2022-07-23T14:35:57;6.23;;;2.70;;
70122;SDS011;57489;37.404;24.920;2022-07-23T14:40:57;7.30;;;2.50;;
70122;SDS011;57489;37.404;24.920;2022-07-23T14:45:58;7.22;;;2.63;;
70122;SDS011;57489;37.404;24.920;2022-07-23T14:50:58;6.03;;;2.37;;
70122;SDS011;57489;37.404;24.920;2022-07-23T14:55:58;7.25;;;2.70;;
70122;SDS011;57489;37.404;24.920;2022-07-23T15:00:59;5.20;;;2.37;;
70122;SDS011;57489;37.404;24.920;2022-07-23T15:05:59;7.03;;;2.53;;
70122;SDS011;57489;37.404;24.920;2022-07-23T15:10:59;6.38;;;2.33;;
70122;SDS011;57489;37.404;24.920;2022-07-23T15:15:59;8.98;;;2.22;;
70122;SDS011;57489;37.404;24.920;2022-07-23T15:21:00;4.45;;;1.88;;
70122;SDS011;57489;37.404;24.920;2022-07-23T15:26:00;5.30;;;1.97;;
70122;SDS011;57489;37.404;24.920;2022-07-23T15:31:01;5.47;;;2.47;;
70122;SDS011;57489;37.404;24.920;2022-07-23T15:36:02;6.38;;;2.53;;
70122;SDS011;57489;37.404;24.920;2022-07-23T15:41:02;6.60;;;2.40;;
70122;SDS011;57489;37.404;24.920;2022-07-23T15:46:03;5.30;;;2.87;;
70122;SDS011;57489;37.404;24.920;2022-07-23T15:51:04;7.28;;;2.45;;
70122;SDS011;57489;37.404;24.920;2022-07-23T15:56:06;6.20;;;3.17;;
70122;SDS011;57489;37.404;24.920;2022-07-23T16:01:06;18.83;;;3.30;;
70122;SDS011;57489;37.404;24.920;2022-07-23T16:06:07;7.80;;;2.47;;
70122;SDS011;57489;37.404;24.920;2022-07-23T16:11:07;5.00;;;2.60;;
70122;SDS011;57489;37.404;24.920;2022-07-23T16:16:07;6.03;;;2.60;;
70122;SDS011;57489;37.404;24.920;2022-07-23T16:21:08;6.57;;;2.17;;
70122;SDS011;57489;37.404;24.920;2022-07-23T16:26:08;7.63;;;2.40;;
70122;SDS011;57489;37.404;24.920;2022-07-23T16:31:08;6.93;;;2.93;;
70122;SDS011;57489;37.404;24.920;2022-07-23T16:36:09;6.10;;;2.53;;
70122;SDS011;57489;37.404;24.920;2022-07-23T16:41:09;4.83;;;2.10;;
70122;SDS011;57489;37.404;24.920;2022-07-23T16:46:10;6.18;;;2.20;;
70122;SDS011;57489;37.404;24.920;2022-07-23T16:51:10;8.57;;;2.22;;
70122;SDS011;57489;37.404;24.920;2022-07-23T16:56:10;4.70;;;1.90;;
70122;SDS011;57489;37.404;24.920;2022-07-23T17:01:10;6.32;;;2.17;;
70122;SDS011;57489;37.404;24.920;2022-07-23T17:06:11;6.10;;;2.38;;
70122;SDS011;57489;37.404;24.920;2022-07-23T17:11:11;6.32;;;2.40;;
70122;SDS011;57489;37.404;24.920;2022-07-23T17:16:11;8.05;;;2.20;;
70122;SDS011;57489;37.404;24.920;2022-07-23T17:21:11;6.63;;;2.30;;
70122;SDS011;57489;37.404;24.920;2022-07-23T17:26:12;5.85;;;1.95;;
70122;SDS011;57489;37.404;24.920;2022-07-23T17:31:12;7.50;;;2.20;;
70122;SDS011;57489;37.404;24.920;2022-07-23T17:36:12;7.45;;;2.30;;
70122;SDS011;57489;37.404;24.920;2022-07-23T17:41:13;4.78;;;2.33;;
70122;SDS011;57489;37.404;24.920;2022-07-23T17:46:13;6.27;;;2.27;;
70122;SDS011;57489;37.404;24.920;2022-07-23T17:51:13;5.18;;;2.00;;
70122;SDS011;57489;37.404;24.920;2022-07-23T17:56:13;5.27;;;2.30;;
70122;SDS011;57489;37.404;24.920;2022-07-23T18:01:14;6.65;;;2.67;;
70122;SDS011;57489;37.404;24.920;2022-07-23T18:06:14;8.27;;;2.63;;
70122;SDS011;57489;37.404;24.920;2022-07-23T18:11:14;7.70;;;2.40;;
70122;SDS011;57489;37.404;24.920;2022-07-23T18:16:15;6.35;;;2.30;;
70122;SDS011;57489;37.404;24.920;2022-07-23T18:21:15;7.20;;;2.60;;
70122;SDS011;57489;37.404;24.920;2022-07-23T18:26:15;6.13;;;2.35;;
70122;SDS011;57489;37.404;24.920;2022-07-23T18:31:16;7.18;;;3.03;;
70122;SDS011;57489;37.404;24.920;2022-07-23T18:36:16;5.60;;;2.60;;
70122;SDS011;57489;37.404;24.920;2022-07-23T18:41:16;7.07;;;2.20;;
70122;SDS011;57489;37.404;24.920;2022-07-23T18:46:16;6.30;;;2.28;;
70122;SDS011;57489;37.404;24.920;2022-07-23T18:51:17;6.28;;;2.47;;
70122;SDS011;57489;37.404;24.920;2022-07-23T18:56:17;5.95;;;2.50;;
70122;SDS011;57489;37.404;24.920;2022-07-23T19:01:17;7.43;;;2.80;;
70122;SDS011;57489;37.404;24.920;2022-07-23T19:06:18;8.50;;;2.70;;
70122;SDS011;57489;37.404;24.920;2022-07-23T19:11:19;6.13;;;2.63;;
70122;SDS011;57489;37.404;24.920;2022-07-23T19:16:20;7.50;;;2.70;;
70122;SDS011;57489;37.404;24.920;2022-07-23T19:21:20;8.82;;;3.15;;
70122;SDS011;57489;37.404;24.920;2022-07-23T19:26:20;6.95;;;3.22;;
70122;SDS011;57489;37.404;24.920;2022-07-23T19:31:20;8.93;;;3.10;;
70122;SDS011;57489;37.404;24.920;2022-07-23T19:36:21;8.35;;;2.97;;
70122;SDS011;57489;37.404;24.920;2022-07-23T19:41:21;8.33;;;3.27;;
70122;SDS011;57489;37.404;24.920;2022-07-23T19:46:21;8.98;;;3.53;;
70122;SDS011;57489;37.404;24.920;2022-07-23T19:51:22;6.80;;;3.03;;
70122;SDS011;57489;37.404;24.920;2022-07-23T19:56:22;14.15;;;3.42;;
70122;SDS011;57489;37.404;24.920;2022-07-23T20:01:23;7.43;;;3.00;;
70122;SDS011;57489;37.404;24.920;2022-07-23T20:06:24;10.23;;;3.23;;
70122;SDS011;57489;37.404;24.920;2022-07-23T20:11:24;10.60;;;3.38;;
70122;SDS011;57489;37.404;24.920;2022-07-23T20:16:24;8.27;;;3.90;;
70122;SDS011;57489;37.404;24.920;2022-07-23T20:21:25;6.70;;;2.60;;
70122;SDS011;57489;37.404;24.920;2022-07-23T20:26:25;7.80;;;3.60;;
70122;SDS011;57489;37.404;24.920;2022-07-23T20:31:25;8.18;;;3.20;;
70122;SDS011;57489;37.404;24.920;2022-07-23T20:36:26;9.77;;;3.53;;
70122;SDS011;57489;37.404;24.920;2022-07-23T20:41:26;7.07;;;3.50;;
70122;SDS011;57489;37.404;24.920;2022-07-23T20:46:26;8.55;;;3.20;;
70122;SDS011;57489;37.404;24.920;2022-07-23T20:51:26;6.73;;;3.03;;
70122;SDS011;57489;37.404;24.920;2022-07-23T20:56:27;9.38;;;2.92;;
70122;SDS011;57489;37.404;24.920;2022-07-23T21:01:27;8.20;;;2.90;;
70122;SDS011;57489;37.404;24.920;2022-07-23T21:06:27;5.57;;;3.30;;
70122;SDS011;57489;37.404;24.920;2022-07-23T21:11:27;10.00;;;3.55;;
70122;SDS011;57489;37.404;24.920;2022-07-23T21:16:28;8.82;;;3.33;;
70122;SDS011;57489;37.404;24.920;2022-07-23T21:21:28;5.93;;;2.97;;
70122;SDS011;57489;37.404;24.920;2022-07-23T21:26:28;6.43;;;3.22;;
70122;SDS011;57489;37.404;24.920;2022-07-23T21:31:29;6.47;;;3.30;;
70122;SDS011;57489;37.404;24.920;2022-07-23T21:36:29;10.98;;;4.30;;
70122;SDS011;57489;37.404;24.920;2022-07-23T21:41:29;6.57;;;3.25;;
70122;SDS011;57489;37.404;24.920;2022-07-23T21:46:30;10.50;;;3.60;;
70122;SDS011;57489;37.404;24.920;2022-07-23T21:51:31;9.90;;;4.00;;
70122;SDS011;57489;37.404;24.920;2022-07-23T21:56:31;7.38;;;3.67;;
70122;SDS011;57489;37.404;24.920;2022-07-23T22:01:32;12.23;;;3.67;;
70122;SDS011;57489;37.404;24.920;2022-07-23T22:06:32;9.57;;;4.20;;
70122;SDS011;57489;37.404;24.920;2022-07-23T22:11:32;13.85;;;5.05;;
70122;SDS011;57489;37.404;24.920;2022-07-23T22:16:32;9.10;;;4.78;;
70122;SDS011;57489;37.404;24.920;2022-07-23T22:21:33;10.93;;;4.50;;
70122;SDS011;57489;37.404;24.920;2022-07-23T22:26:33;10.53;;;4.57;;
70122;SDS011;57489;37.404;24.920;2022-07-23T22:31:33;9.32;;;4.70;;
70122;SDS011;57489;37.404;24.920;2022-07-23T22:36:33;9.35;;;4.90;;
70122;SDS011;57489;37.404;24.920;2022-07-23T22:41:34;8.32;;;4.45;;
70122;SDS011;57489;37.404;24.920;2022-07-23T22:46:34;10.00;;;4.97;;
70122;SDS011;57489;37.404;24.920;2022-07-23T22:51:34;8.88;;;4.55;;
70122;SDS011;57489;37.404;24.920;2022-07-23T22:56:35;9.55;;;4.07;;
70122;SDS011;57489;37.404;24.920;2022-07-23T23:01:35;9.75;;;4.30;;
70122;SDS011;57489;37.404;24.920;2022-07-23T23:06:35;8.65;;;4.15;;
70122;SDS011;57489;37.404;24.920;2022-07-23T23:11:35;12.57;;;4.28;;
70122;SDS011;57489;37.404;24.920;2022-07-23T23:16:36;8.63;;;4.43;;
70122;SDS011;57489;37.404;24.920;2022-07-23T23:21:36;8.55;;;4.38;;
70122;SDS011;57489;37.404;24.920;2022-07-23T23:26:36;7.53;;;3.90;;
70122;SDS011;57489;37.404;24.920;2022-07-23T23:31:36;8.57;;;3.85;;
70122;SDS011;57489;37.404;24.920;2022-07-23T23:36:37;12.50;;;3.40;;
70122;SDS011;57489;37.404;24.920;2022-07-23T23:41:37;9.93;;;4.63;;
70122;SDS011;57489;37.404;24.920;2022-07-23T23:46:37;6.07;;;3.35;;
70122;SDS011;57489;37.404;24.920;2022-07-23T23:51:37;7.50;;;3.90;;
70122;SDS011;57489;37.404;24.920;2022-07-23T23:56:38;6.72;;;3.72;;
